createdAt,value
2019-01-25T00:01:56.400Z,100110.63
2019-01-25T00:04:39.234Z,100113.22
2019-01-25T00:07:29.650Z,100107.64
2019-01-25T00:10:12.246Z,100108.50
2019-01-25T00:13:02.675Z,100114.06
2019-01-25T00:15:45.573Z,100117.09
2019-01-25T00:18:35.980Z,100111.06
2019-01-25T00:21:18.849Z,100107.18
2019-01-25T00:24:09.260Z,100098.59
2019-01-25T00:26:52.513Z,100104.62
2019-01-25T00:29:42.913Z,100102.89
2019-01-25T00:32:26.063Z,100108.49
2019-01-25T00:35:16.478Z,100114.50
2019-01-25T00:37:59.384Z,100114.08
2019-01-25T00:40:49.787Z,100116.67
2019-01-25T00:43:33.222Z,100109.78
2019-01-25T00:46:23.619Z,100114.93
2019-01-25T00:49:27.544Z,100108.47
2019-01-25T00:52:17.968Z,100112.80
2019-01-25T00:55:00.653Z,100104.19
2019-01-25T00:57:51.069Z,100102.02
2019-01-25T01:00:33.992Z,100097.72
2019-01-25T01:03:24.411Z,100099.87
2019-01-25T01:06:07.843Z,100097.30
2019-01-25T01:08:58.219Z,100102.45
2019-01-25T01:11:41.587Z,100100.33
2019-01-25T01:14:32.003Z,100107.22
2019-01-25T01:17:15.145Z,100101.19
2019-01-25T01:20:07.593Z,100094.71
2019-01-25T01:22:50.876Z,100096.84
2019-01-25T01:25:41.293Z,100099.45
2019-01-25T01:28:24.255Z,100093.41
2019-01-25T01:31:14.678Z,100101.61
2019-01-25T01:33:57.970Z,100098.57
2019-01-25T01:36:48.375Z,100110.65
2019-01-25T01:39:31.711Z,100111.93
2019-01-25T01:42:22.130Z,100108.06
2019-01-25T01:45:25.188Z,100118.81
2019-01-25T01:48:15.612Z,100122.29
2019-01-25T01:50:58.341Z,100115.81
2019-01-25T01:53:48.762Z,100122.70
2019-01-25T01:56:31.764Z,100124.44
2019-01-25T01:59:22.192Z,100127.00
2019-01-25T02:02:04.957Z,100128.31
2019-01-25T02:04:55.364Z,100130.44
2019-01-25T02:07:58.251Z,100130.45
2019-01-25T02:10:48.698Z,100122.27
2019-01-25T02:13:31.512Z,100113.23
2019-01-25T02:16:21.926Z,100112.80
2019-01-25T02:19:05.441Z,100121.84
2019-01-25T02:21:55.892Z,100115.37
2019-01-25T02:24:38.693Z,100110.20
2019-01-25T02:27:29.096Z,100110.20
2019-01-25T02:30:14.088Z,100111.08
2019-01-25T02:33:17.330Z,100119.27
2019-01-25T02:36:07.899Z,100123.56
2019-01-25T02:38:50.997Z,100123.58
2019-01-25T02:41:41.460Z,100113.64
2019-01-25T02:44:24.030Z,100115.38
2019-01-25T02:47:14.445Z,100111.93
2019-01-25T02:49:57.058Z,100123.13
2019-01-25T02:52:47.685Z,100127.88
2019-01-25T02:58:39.890Z,100122.69
2019-01-25T03:01:30.304Z,100116.66
2019-01-25T03:04:13.637Z,100119.68
2019-01-25T03:07:04.124Z,100112.38
2019-01-25T03:09:46.953Z,100118.41
2019-01-25T03:12:37.351Z,100120.54
2019-01-25T03:15:21.387Z,100132.62
2019-01-25T03:18:11.822Z,100123.98
2019-01-25T03:20:54.716Z,100126.14
2019-01-25T03:23:37.405Z,100123.55
2019-01-25T03:26:27.839Z,100127.88
2019-01-25T03:29:11.225Z,100125.29
2019-01-25T03:32:01.599Z,100120.56
2019-01-25T03:34:52.019Z,100119.70
2019-01-25T03:38:02.328Z,100121.83
2019-01-25T03:40:45.422Z,100126.58
2019-01-25T03:43:35.839Z,100117.52
2019-01-25T03:46:19.066Z,100121.84
2019-01-25T03:49:09.459Z,100116.66
2019-01-25T03:51:52.347Z,100118.41
2019-01-25T03:54:35.392Z,100121.41
2019-01-25T03:57:25.788Z,100127.87
2019-01-25T04:00:11.099Z,100118.83
2019-01-25T04:03:01.464Z,100125.72
2019-01-25T04:05:45.157Z,100125.27
2019-01-25T04:08:35.569Z,100119.70
2019-01-25T04:11:18.705Z,100119.68
2019-01-25T04:14:09.108Z,100126.98
2019-01-25T04:16:52.442Z,100123.99
2019-01-25T04:19:42.843Z,100123.13
2019-01-25T04:22:25.775Z,100117.10
2019-01-25T04:25:18.291Z,100117.12
2019-01-25T04:28:01.628Z,100127.88
2019-01-25T04:30:52.092Z,100114.95
2019-01-25T04:33:34.731Z,100124.41
2019-01-25T04:36:25.134Z,100125.72
2019-01-25T04:39:09.202Z,100118.41
2019-01-25T04:41:59.620Z,100122.69
2019-01-25T04:44:43.160Z,100117.52
2019-01-25T04:47:33.596Z,100120.11
2019-01-25T04:50:19.748Z,100111.50
2019-01-25T04:53:29.031Z,100109.36
2019-01-25T04:56:11.833Z,100110.20
2019-01-25T04:59:02.210Z,100105.04
2019-01-25T05:01:45.353Z,100114.09
2019-01-25T05:04:37.118Z,100117.98
2019-01-25T05:07:20.048Z,100117.95
2019-01-25T05:10:10.474Z,100122.70
2019-01-25T05:12:53.544Z,100117.09
2019-01-25T05:15:43.932Z,100119.67
2019-01-25T05:18:27.491Z,100117.52
2019-01-25T05:21:12.007Z,100112.37
2019-01-25T05:27:25.240Z,100132.61
2019-01-25T05:30:28.537Z,100130.89
2019-01-25T05:33:18.915Z,100139.50
2019-01-25T05:36:02.100Z,100145.95
2019-01-25T05:38:52.507Z,100145.53
2019-01-25T05:41:35.244Z,100149.41
2019-01-25T05:44:25.601Z,100161.90
2019-01-25T05:47:09.218Z,100164.47
2019-01-25T05:49:59.594Z,100162.31
2019-01-25T05:52:42.179Z,100161.45
2019-01-25T05:55:24.975Z,100164.90
2019-01-25T05:58:15.337Z,100165.74
2019-01-25T06:00:58.619Z,100168.33
2019-01-25T06:03:48.996Z,100159.28
2019-01-25T06:06:31.935Z,100157.13
2019-01-25T06:09:22.484Z,100165.30
2019-01-25T06:12:05.960Z,100168.78
2019-01-25T06:14:56.401Z,100168.77
2019-01-25T06:17:39.929Z,100168.78
2019-01-25T06:20:30.338Z,100170.92
2019-01-25T06:23:13.869Z,100164.05
2019-01-25T06:29:33.630Z,100165.34
2019-01-25T06:32:23.996Z,100158.45
2019-01-25T06:35:14.383Z,100158.89
2019-01-25T06:37:57.714Z,100165.34
2019-01-25T06:40:48.108Z,100164.91
2019-01-25T06:43:31.337Z,100156.73
2019-01-25T06:46:21.718Z,100161.91
2019-01-25T06:49:04.495Z,100165.34
2019-01-25T06:51:54.892Z,100156.72
2019-01-25T06:54:37.944Z,100167.94
2019-01-25T07:04:07.032Z,100174.41
2019-01-25T07:06:49.566Z,100171.78
2019-01-25T07:09:39.947Z,100164.91
2019-01-25T07:12:22.599Z,100160.62
2019-01-25T07:18:36.297Z,100179.13
2019-01-25T07:21:26.710Z,100177.84
2019-01-25T07:24:09.997Z,100179.97
2019-01-25T07:27:00.365Z,100177.83
2019-01-25T07:29:43.909Z,100185.16
2019-01-25T07:32:34.302Z,100180.45
2019-01-25T07:35:17.366Z,100185.61
2019-01-25T07:38:07.723Z,100180.02
2019-01-25T07:40:51.302Z,100181.28
2019-01-25T07:43:41.691Z,100181.72
2019-01-25T07:46:24.143Z,100184.31
2019-01-25T07:49:14.534Z,100184.31
2019-01-25T07:51:57.901Z,100172.68
2019-01-25T07:54:48.231Z,100174.81
2019-01-25T07:57:31.306Z,100180.45
2019-01-25T08:00:21.700Z,100183.46
2019-01-25T08:03:05.118Z,100183.03
2019-01-25T08:05:55.521Z,100176.13
2019-01-25T08:08:38.982Z,100175.27
2019-01-25T08:11:29.374Z,100177.42
2019-01-25T08:14:12.978Z,100175.25
2019-01-25T08:17:03.499Z,100171.81
2019-01-25T08:19:47.040Z,100163.62
2019-01-25T08:22:37.449Z,100163.20
2019-01-25T08:25:20.215Z,100166.22
2019-01-25T08:28:10.655Z,100176.11
2019-01-25T08:30:53.838Z,100172.26
2019-01-25T08:33:44.234Z,100174.83
2019-01-25T08:36:27.025Z,100178.29
2019-01-25T08:39:17.441Z,100176.98
2019-01-25T08:41:58.296Z,100179.14
2019-01-25T08:44:39.044Z,100174.81
2019-01-25T08:47:29.500Z,100178.68
2019-01-25T08:50:34.460Z,100173.95
2019-01-25T08:53:24.888Z,100176.97
2019-01-25T08:56:08.071Z,100174.80
2019-01-25T08:58:58.945Z,100182.56
2019-01-25T09:02:03.267Z,100181.72
2019-01-25T09:04:53.645Z,100198.09
2019-01-25T09:07:36.207Z,100201.56
2019-01-25T09:10:26.680Z,100203.70
2019-01-25T09:13:10.149Z,100201.56
2019-01-25T09:16:00.545Z,100197.67
2019-01-25T09:18:43.927Z,100199.81
2019-01-25T09:21:34.339Z,100203.25
2019-01-25T09:24:17.211Z,100208.00
2019-01-25T09:27:07.584Z,100205.41
2019-01-25T09:29:50.468Z,100198.09
2019-01-25T09:32:40.836Z,100202.39
2019-01-25T09:35:23.497Z,100207.58
2019-01-25T09:38:13.894Z,100205.00
2019-01-25T09:41:04.306Z,100206.28
2019-01-25T09:43:47.071Z,100207.99
2019-01-25T09:46:37.429Z,100205.41
2019-01-25T09:49:20.266Z,100211.45
2019-01-25T09:52:10.756Z,100206.27
2019-01-25T09:54:53.961Z,100206.69
2019-01-25T09:57:36.595Z,100207.13
2019-01-25T10:00:47.641Z,100206.69
2019-01-25T10:03:30.806Z,100195.49
2019-01-25T10:06:21.168Z,100193.30
2019-01-25T10:09:05.938Z,100200.64
2019-01-25T10:11:56.308Z,100195.86
2019-01-25T10:14:39.760Z,100196.28
2019-01-25T10:17:30.156Z,100190.64
2019-01-25T10:20:13.848Z,100184.56
2019-01-25T10:23:04.255Z,100174.26
2019-01-25T10:25:46.835Z,100168.20
2019-01-25T10:28:37.250Z,100159.53
2019-01-25T10:31:20.563Z,100150.48
2019-01-25T10:34:10.947Z,100149.17
2019-01-25T10:36:53.725Z,100146.16
2019-01-25T10:39:44.124Z,100156.52
2019-01-25T10:42:27.059Z,100154.80
2019-01-25T10:45:37.379Z,100154.33
2019-01-25T10:48:20.168Z,100161.19
2019-01-25T10:51:10.562Z,100166.77
2019-01-25T10:53:54.015Z,100155.53
2019-01-25T10:56:44.428Z,100154.75
2019-01-25T10:59:27.325Z,100161.17
2019-01-25T11:02:17.715Z,100153.78
2019-01-25T11:05:01.249Z,100144.75
2019-01-25T11:07:51.729Z,100143.42
2019-01-25T11:10:34.717Z,100139.52
2019-01-25T11:13:25.134Z,100133.47
2019-01-25T11:16:11.762Z,100130.39
2019-01-25T11:18:59.743Z,100117.41
2019-01-25T11:22:02.680Z,100110.55
2019-01-25T11:24:53.014Z,100121.33
2019-01-25T11:27:35.954Z,100123.06
2019-01-25T11:30:26.351Z,100104.45
2019-01-25T11:33:09.685Z,100102.66
2019-01-25T11:36:00.041Z,100109.48
2019-01-25T11:38:42.922Z,100114.24
2019-01-25T11:41:33.258Z,100109.89
2019-01-25T11:44:16.243Z,100102.13
2019-01-25T11:47:06.569Z,100102.10
2019-01-25T11:49:49.656Z,100103.55
2019-01-25T11:52:40.016Z,100101.36
2019-01-25T11:55:22.893Z,100104.31
2019-01-25T11:58:13.241Z,100101.28
2019-01-25T12:00:56.720Z,100108.23
2019-01-25T12:03:47.050Z,100110.03
2019-01-25T12:06:30.376Z,100115.69
2019-01-25T12:09:20.761Z,100106.16
2019-01-25T12:12:03.721Z,100107.84
2019-01-25T12:14:54.067Z,100118.64
2019-01-25T12:17:36.874Z,100122.97
2019-01-25T12:20:40.140Z,100119.44
2019-01-25T12:23:30.995Z,100116.81
2019-01-25T12:26:13.579Z,100125.40
2019-01-25T12:29:03.933Z,100117.98
2019-01-25T12:31:47.002Z,100109.70
2019-01-25T12:34:38.207Z,100108.88
2019-01-25T12:37:21.291Z,100110.23
2019-01-25T12:40:12.956Z,100096.80
2019-01-25T12:42:55.569Z,100100.56
2019-01-25T12:49:14.437Z,100108.69
2019-01-25T12:52:09.347Z,100106.88
2019-01-25T12:54:53.815Z,100107.20
2019-01-25T12:57:44.322Z,100100.72
2019-01-25T13:00:26.953Z,100092.45
2019-01-25T13:03:10.824Z,100073.09
2019-01-25T13:09:05.469Z,100067.80
2019-01-25T13:11:55.867Z,100070.78
2019-01-25T13:14:39.121Z,100075.56
2019-01-25T13:17:29.494Z,100063.78
2019-01-25T13:20:14.740Z,100079.36
2019-01-25T13:23:05.252Z,100069.46
2019-01-25T13:25:47.848Z,100063.81
2019-01-25T13:28:41.759Z,100066.00
2019-01-25T13:31:42.817Z,100064.75
2019-01-25T13:34:33.285Z,100062.00
2019-01-25T13:37:16.592Z,100050.59
2019-01-25T13:40:10.037Z,100049.30
2019-01-25T13:42:53.274Z,100049.27
2019-01-25T13:45:43.697Z,100030.78
2019-01-25T13:48:27.233Z,100034.34
2019-01-25T13:51:17.574Z,100025.56
2019-01-25T13:54:00.547Z,100032.89
2019-01-25T13:56:43.101Z,100021.03
2019-01-25T13:59:25.895Z,100014.14
2019-01-25T14:02:16.317Z,100009.59
2019-01-25T14:04:59.830Z,100015.46
2019-01-25T14:07:50.243Z,100011.97
2019-01-25T14:10:34.184Z,100005.66
2019-01-25T14:13:24.618Z,100005.94
2019-01-25T14:16:07.996Z,99990.52
2019-01-25T14:18:58.378Z,99972.24
2019-01-25T14:21:41.448Z,99975.53
2019-01-25T14:24:31.785Z,99982.09
2019-01-25T14:27:14.613Z,99973.50
2019-01-25T14:33:53.011Z,99961.68
2019-01-25T14:36:43.389Z,99953.75
2019-01-25T14:39:26.872Z,99951.22
2019-01-25T14:42:17.219Z,99949.98
2019-01-25T14:44:59.881Z,99951.36
2019-01-25T14:47:50.238Z,99947.92
2019-01-25T14:50:33.785Z,99959.88
2019-01-25T14:53:24.162Z,99952.59
2019-01-25T14:56:06.956Z,99947.86
2019-01-25T14:58:49.876Z,99958.65
2019-01-25T15:01:21.151Z,99953.78
2019-01-25T15:04:11.540Z,99939.20
2019-01-25T15:06:54.644Z,99934.11
2019-01-25T15:09:45.037Z,99947.79
2019-01-25T15:12:27.718Z,99953.45
2019-01-25T15:15:18.276Z,99951.76
2019-01-25T15:18:00.937Z,99949.73
2019-01-25T15:20:51.363Z,99941.07
2019-01-25T15:23:34.872Z,99938.34
2019-01-25T15:26:25.219Z,99932.67
2019-01-25T15:29:08.636Z,99932.16
2019-01-25T15:31:59.060Z,99924.34
2019-01-25T15:34:42.211Z,99917.52
2019-01-25T15:37:32.932Z,99899.62
2019-01-25T15:40:15.609Z,99907.52
2019-01-25T15:43:06.003Z,99919.97
2019-01-25T15:45:49.087Z,99910.41
2019-01-25T15:48:39.425Z,99923.44
2019-01-25T15:51:22.675Z,99936.64
2019-01-25T15:54:13.042Z,99931.30
2019-01-25T15:56:55.856Z,99935.77
2019-01-25T15:59:46.174Z,99921.30
2019-01-25T16:02:29.307Z,99913.01
2019-01-25T16:05:59.502Z,99907.66
2019-01-25T16:08:42.489Z,99900.02
2019-01-25T16:11:32.857Z,99915.30
2019-01-25T16:14:18.065Z,99911.08
2019-01-25T16:17:07.815Z,99909.89
2019-01-25T16:19:50.789Z,99911.67
2019-01-25T16:22:41.178Z,99906.67
2019-01-25T16:25:28.037Z,99898.95
2019-01-25T16:28:18.439Z,99893.68
2019-01-25T16:31:02.122Z,99903.33
2019-01-25T16:33:52.540Z,99892.58
2019-01-25T16:36:35.637Z,99881.78
2019-01-25T16:39:26.015Z,99876.27
2019-01-25T16:42:08.565Z,99871.59
2019-01-25T16:44:58.905Z,99869.31
2019-01-25T16:47:42.255Z,99861.23
2019-01-25T16:50:32.663Z,99861.03
2019-01-25T16:53:16.241Z,99862.83
2019-01-25T16:56:06.866Z,99867.12
2019-01-25T16:58:49.575Z,99859.08
2019-01-25T17:01:33.142Z,99858.83
2019-01-25T17:04:23.471Z,99858.50
2019-01-25T17:07:06.960Z,99859.88
2019-01-25T17:09:57.324Z,99850.90
2019-01-25T17:12:40.586Z,99850.86
2019-01-25T17:15:30.985Z,99854.14
2019-01-25T17:18:14.044Z,99849.02
2019-01-25T17:21:24.904Z,99851.55
2019-01-25T17:24:07.935Z,99849.67
2019-01-25T17:26:58.312Z,99840.83
2019-01-25T17:29:40.850Z,99830.20
2019-01-25T17:32:31.206Z,99840.19
2019-01-25T17:35:14.310Z,99835.90
2019-01-25T17:41:53.488Z,99813.44
2019-01-25T17:44:43.839Z,99801.75
2019-01-25T17:47:34.236Z,99804.34
2019-01-25T17:50:37.405Z,99802.69
2019-01-25T17:53:27.769Z,99806.08
2019-01-25T17:56:10.318Z,99804.66
2019-01-25T17:58:52.859Z,99799.59
2019-01-25T18:01:43.216Z,99796.56
2019-01-25T18:04:25.757Z,99794.24
2019-01-25T18:07:16.120Z,99785.23
2019-01-25T18:09:59.571Z,99782.16
2019-01-25T18:12:49.933Z,99766.23
2019-01-25T18:15:32.536Z,99763.09
2019-01-25T18:18:22.910Z,99755.30
2019-01-25T18:21:05.662Z,99751.48
2019-01-25T18:23:56.022Z,99762.70
2019-01-25T18:26:39.410Z,99763.05
2019-01-25T18:29:34.904Z,99762.23
2019-01-25T18:32:18.146Z,99759.74
2019-01-25T18:35:08.513Z,99747.78
2019-01-25T18:37:51.257Z,99754.31
2019-01-25T18:40:41.608Z,99766.31
2019-01-25T18:43:24.335Z,99764.78
2019-01-25T18:46:14.747Z,99755.10
2019-01-25T18:48:57.377Z,99753.80
2019-01-25T18:51:47.753Z,99744.59
2019-01-25T18:54:31.326Z,99732.44
2019-01-25T18:57:21.662Z,99740.61
2019-01-25T19:00:05.442Z,99741.95
2019-01-25T19:02:55.795Z,99744.94
2019-01-25T19:05:38.979Z,99736.72
2019-01-25T19:08:29.339Z,99725.81
2019-01-25T19:11:12.473Z,99725.41
2019-01-25T19:14:02.846Z,99750.41
2019-01-25T19:16:45.576Z,99723.95
2019-01-25T19:19:35.948Z,99721.78
2019-01-25T19:22:18.747Z,99720.57
2019-01-25T19:25:09.179Z,99725.50
2019-01-25T19:27:52.043Z,99719.97
2019-01-25T19:30:44.365Z,99719.78
2019-01-25T19:33:27.434Z,99718.63
2019-01-25T19:36:18.033Z,99716.28
2019-01-25T19:39:01.484Z,99720.17
2019-01-25T19:41:51.830Z,99690.50
2019-01-25T19:44:35.316Z,99690.16
2019-01-25T19:47:25.715Z,99691.89
2019-01-25T19:50:09.881Z,99695.73
2019-01-25T19:53:00.263Z,99700.08
2019-01-25T19:55:43.513Z,99694.25
2019-01-25T19:58:33.903Z,99693.71
2019-01-25T20:01:17.393Z,99685.39
2019-01-25T20:04:07.759Z,99692.36
2019-01-25T20:06:51.238Z,99687.94
2019-01-25T20:09:41.610Z,99681.63
2019-01-25T20:12:24.946Z,99690.20
2019-01-25T20:15:19.578Z,99668.36
2019-01-25T20:18:01.407Z,99672.25
2019-01-25T20:20:51.796Z,99675.86
2019-01-25T20:23:35.034Z,99674.42
2019-01-25T20:26:25.394Z,99682.79
2019-01-25T20:29:07.901Z,99688.71
2019-01-25T20:31:58.236Z,99670.38
2019-01-25T20:34:40.796Z,99667.64
2019-01-25T20:37:31.162Z,99673.55
2019-01-25T20:40:15.208Z,99674.04
2019-01-25T20:43:26.052Z,99673.41
2019-01-25T20:46:08.660Z,99676.44
2019-01-25T20:48:59.153Z,99684.00
2019-01-25T20:51:42.295Z,99673.89
2019-01-25T20:54:32.657Z,99674.43
2019-01-25T20:57:15.847Z,99680.25
2019-01-25T20:59:59.129Z,99677.66
2019-01-25T21:06:17.774Z,99661.14
2019-01-25T21:12:31.821Z,99651.94
2019-01-25T21:15:15.122Z,99661.48
2019-01-25T21:18:06.108Z,99649.19
2019-01-25T21:20:48.740Z,99645.19
2019-01-25T21:23:39.225Z,99643.87
2019-01-25T21:26:21.822Z,99660.69
2019-01-25T21:29:12.221Z,99655.14
2019-01-25T21:31:55.558Z,99648.05
2019-01-25T21:34:45.993Z,99652.78
2019-01-25T21:37:29.517Z,99650.50
2019-01-25T21:40:21.869Z,99645.80
2019-01-25T21:43:05.072Z,99644.61
2019-01-25T21:45:55.437Z,99634.58
2019-01-25T21:48:38.779Z,99640.61
2019-01-25T21:51:29.122Z,99638.05
2019-01-25T21:54:11.678Z,99634.80
2019-01-25T21:57:02.089Z,99640.49
2019-01-25T21:59:45.451Z,99634.80
2019-01-25T22:02:28.651Z,99627.00
2019-01-25T22:05:19.287Z,99629.33
2019-01-25T22:08:02.799Z,99618.76
2019-01-25T22:10:53.190Z,99633.50
2019-01-25T22:13:36.289Z,99620.39
2019-01-25T22:16:26.690Z,99614.94
2019-01-25T22:19:09.875Z,99619.09
2019-01-25T22:22:00.278Z,99614.00
2019-01-25T22:24:50.654Z,99619.51
2019-01-25T22:27:33.755Z,99618.16
2019-01-25T22:33:53.381Z,99611.66
2019-01-25T22:36:43.802Z,99612.47
2019-01-25T22:39:27.207Z,99624.00
2019-01-25T22:42:17.615Z,99624.29
2019-01-25T22:45:00.243Z,99618.21
2019-01-25T22:47:50.767Z,99606.99
2019-01-25T22:50:35.350Z,99607.27
2019-01-25T22:53:25.779Z,99615.07
2019-01-25T22:56:08.500Z,99608.83
2019-01-25T22:58:58.877Z,99599.23
2019-01-25T23:01:42.237Z,99609.57
2019-01-25T23:05:10.727Z,99601.64
2019-01-25T23:07:54.377Z,99603.00
2019-01-25T23:10:44.783Z,99596.02
2019-01-25T23:13:28.318Z,99605.80
2019-01-25T23:16:18.785Z,99601.58
2019-01-25T23:19:01.772Z,99597.67
2019-01-25T23:21:52.163Z,99598.00
2019-01-25T23:24:35.324Z,99589.39
2019-01-25T23:27:25.748Z,99595.34
2019-01-25T23:30:12.850Z,99597.50
2019-01-25T23:33:03.267Z,99600.50
2019-01-25T23:35:46.649Z,99604.27
2019-01-25T23:38:37.091Z,99586.99
2019-01-25T23:41:20.420Z,99590.06
2019-01-25T23:44:10.838Z,99589.89
2019-01-25T23:46:54.146Z,99583.06
2019-01-25T23:49:44.586Z,99586.67
2019-01-25T23:52:27.377Z,99584.88
2019-01-25T23:55:17.785Z,99578.69
2019-01-25T23:58:01.039Z,99589.08
